Beaver Bay, MN

12:17 AM CDT on April 21, 2015 (GMT -0500)
Ely Municipal | | Change Station
CLOSE
Current Station
Airport
Location: Ely,
Elevation: 1453 ft
Nearby Weather Stations

Elev 1453 ft 47.82 °N, 91.83 °W | Updated 24 minutes ago

Overcast
Overcast
32 °F
Feels Like 25 °F
N
8
Wind Variable Wind from West

Today
High -- | Low -- °F
--% Chance of Precip.
Yesterday
High -- | Low -- °F
Precip. -- in
6:06 AM 8:02 PM
Waxing Crescent, 8% visible
Pressure 29.29 in
Visibility 2.5 miles
Clouds Scattered Clouds 1000 ft
Mostly Cloudy 1700 ft
Overcast 3000 ft
Windchill 25 °F
Dew Point 30 °F
Humidity 93%
Rainfall 0.08 in
Snow Depth Not available.
UV 0 out of 12
Pollen 10.00 out of 12
Air Quality Not available.
Flu Activity Local Activity
METAR KELO 210453Z AUTO 28007KT 2 1/2SM -SN SCT010 BKN017 OVC030 00/M01 A2929 RMK AO2

More Conditions Fewer Conditions

Pressure 29.29 in
Visibility 2.5 miles
Clouds Scattered Clouds 1000 ft
Mostly Cloudy 1700 ft
Overcast 3000 ft
Windchill 25 °F
Dew Point 30 °F
Humidity 93%
Rainfall 0.08 in
Snow Depth Not available.
UV 0 out of 12
Pollen 10.00 out of 12
Air Quality Not available.
Flu Activity Local Activity
METAR KELO 210453Z AUTO 28007KT 2 1/2SM -SN SCT010 BKN017 OVC030 00/M01 A2929 RMK AO2

More Conditions Fewer Conditions

10-Day Weather Forecast

Almanac

Astronomy

Apr. 21, 2015 Rise Set
Actual Time
Civil Twilight
Nautical Twilight
Astronomical Twilight
Moon
Length of Visible Light
Length of Day
Tomorrow will be .
, % of the Moon is Illuminated

Today's Extremes

State Highs State Lows

Community

WunderPhotos

Upload Photos

1,815,316 photos uploaded!

WunderBlogs® & News

Nearby

Air Quality

  Air Quality AQ Index Pollutant
Not available.

Snow Depth

Station Depth Elevation

Earthquake Activity

City Distance Mag. Time & Date
Minimum magnitude displayed is 2.5.

Coastal Water Temperatures

Place Temperature

Stations

Nearby Weather Stations

Station Location Temp. Windchill Dew Point Humidity Wind Precip. Elev Updated Type